createdAt,value
2022-12-29T00:01:12.020Z,1.30
2022-12-29T00:03:41.888Z,1.30
2022-12-29T00:06:11.847Z,1.00
2022-12-29T00:08:44.116Z,0.90
2022-12-29T00:11:16.573Z,0.90
2022-12-29T00:13:59.175Z,0.90
2022-12-29T00:16:29.792Z,1.00
2022-12-29T00:18:59.638Z,1.20
2022-12-29T00:21:42.955Z,0.90
2022-12-29T00:24:30.479Z,1.10
2022-12-29T00:27:20.864Z,1.03
2022-12-29T00:30:03.385Z,1.17
2022-12-29T00:32:45.577Z,0.90
2022-12-29T00:35:18.432Z,0.90
2022-12-29T00:38:04.035Z,1.00
2022-12-29T00:40:48.786Z,1.00
2022-12-29T00:43:30.934Z,1.23
2022-12-29T00:46:00.641Z,1.00
2022-12-29T00:48:42.843Z,0.87
2022-12-29T00:51:12.589Z,1.27
2022-12-29T00:53:42.335Z,0.93
2022-12-29T00:56:14.631Z,1.20
2022-12-29T00:58:44.299Z,0.90
2022-12-29T01:01:14.026Z,1.10
2022-12-29T01:03:43.758Z,0.90
2022-12-29T01:06:14.595Z,0.90
2022-12-29T01:08:44.288Z,0.80
2022-12-29T01:11:14.427Z,0.80
2022-12-29T01:13:44.857Z,0.87
2022-12-29T01:16:14.886Z,0.97
2022-12-29T01:18:45.061Z,0.90
2022-12-29T01:21:14.757Z,0.70
2022-12-29T01:23:44.381Z,0.80
2022-12-29T01:26:18.576Z,0.80
2022-12-29T01:28:48.555Z,0.80
2022-12-29T01:31:18.849Z,0.80
2022-12-29T01:33:48.621Z,0.80
2022-12-29T01:36:20.495Z,1.70
2022-12-29T01:38:50.255Z,0.70
2022-12-29T01:41:22.734Z,0.77
2022-12-29T01:43:56.107Z,0.97
2022-12-29T01:46:30.448Z,0.80
2022-12-29T01:49:06.491Z,0.80
2022-12-29T01:51:40.210Z,0.77
2022-12-29T01:54:15.698Z,0.80
2022-12-29T01:56:49.465Z,0.80
2022-12-29T01:59:23.953Z,0.70
2022-12-29T02:01:54.761Z,0.70
2022-12-29T02:04:27.587Z,0.70
2022-12-29T02:07:01.952Z,0.80
2022-12-29T02:09:32.638Z,0.70
2022-12-29T02:12:05.687Z,0.77
2022-12-29T02:14:35.680Z,2.20
2022-12-29T02:17:13.491Z,0.60
2022-12-29T02:20:24.532Z,0.70
2022-12-29T02:23:12.338Z,0.80
2022-12-29T02:26:10.210Z,0.70
2022-12-29T02:29:24.670Z,0.60
2022-12-29T02:32:02.927Z,0.60
2022-12-29T02:34:45.799Z,0.70
2022-12-29T02:37:23.507Z,0.70
2022-12-29T02:39:59.481Z,0.60
2022-12-29T02:42:38.133Z,0.80
2022-12-29T02:45:14.735Z,0.70
2022-12-29T02:47:58.727Z,0.60
2022-12-29T02:50:36.271Z,0.80
2022-12-29T02:53:10.241Z,0.70
2022-12-29T02:55:37.357Z,0.60
2022-12-29T02:58:22.458Z,0.60
2022-12-29T03:01:11.435Z,0.70
2022-12-29T03:03:55.644Z,0.73
2022-12-29T03:06:36.573Z,0.70
2022-12-29T03:09:18.673Z,0.80
2022-12-29T03:12:12.254Z,0.80
2022-12-29T03:15:05.661Z,0.60
2022-12-29T03:17:44.208Z,0.80
2022-12-29T03:20:24.740Z,0.80
2022-12-29T03:23:03.317Z,0.60
2022-12-29T03:25:40.573Z,0.70
2022-12-29T03:28:18.009Z,0.70
2022-12-29T03:30:50.752Z,0.63
2022-12-29T03:33:27.694Z,0.60
2022-12-29T03:36:03.492Z,0.70
2022-12-29T03:38:41.000Z,0.60
2022-12-29T03:41:14.911Z,0.60
2022-12-29T03:43:45.035Z,1.13
2022-12-29T03:46:15.218Z,0.50
2022-12-29T03:48:45.708Z,0.63
2022-12-29T03:51:18.917Z,0.60
2022-12-29T03:53:48.727Z,0.70
2022-12-29T03:56:18.458Z,0.57
2022-12-29T03:58:48.481Z,0.60
2022-12-29T04:01:23.198Z,0.60
2022-12-29T04:03:52.931Z,0.50
2022-12-29T04:06:26.335Z,0.63
2022-12-29T04:09:05.033Z,0.60
2022-12-29T04:11:38.573Z,0.60
2022-12-29T04:14:09.163Z,0.60
2022-12-29T04:16:40.002Z,0.60
2022-12-29T04:19:11.340Z,0.50
2022-12-29T04:21:43.653Z,0.70
2022-12-29T04:24:14.083Z,1.00
2022-12-29T04:26:45.387Z,0.70
2022-12-29T04:29:37.944Z,0.60
2022-12-29T04:32:29.282Z,0.80
2022-12-29T04:34:59.533Z,0.60
2022-12-29T04:37:31.925Z,1.50
2022-12-29T04:40:01.633Z,0.70
2022-12-29T04:42:32.742Z,0.77
2022-12-29T04:45:03.420Z,0.60
2022-12-29T04:47:50.333Z,0.80
2022-12-29T04:50:34.013Z,0.70
2022-12-29T04:53:21.734Z,0.60
2022-12-29T04:55:53.617Z,0.70
2022-12-29T04:58:24.326Z,0.60
2022-12-29T05:00:55.740Z,0.57
2022-12-29T05:03:28.234Z,1.00
2022-12-29T05:05:59.315Z,0.80
2022-12-29T05:08:31.602Z,0.70
2022-12-29T05:11:03.710Z,0.70
2022-12-29T05:13:33.408Z,0.70
2022-12-29T05:16:03.731Z,0.60
2022-12-29T05:18:33.607Z,0.70
2022-12-29T05:21:03.433Z,0.87
2022-12-29T05:23:35.984Z,0.70
2022-12-29T05:26:09.155Z,0.77
2022-12-29T05:28:57.093Z,0.70
2022-12-29T05:31:26.888Z,0.50
2022-12-29T05:33:56.943Z,0.83
2022-12-29T05:36:26.800Z,0.80
2022-12-29T05:39:03.608Z,0.90
2022-12-29T05:41:33.722Z,0.70
2022-12-29T05:44:03.521Z,0.73
2022-12-29T05:46:33.954Z,0.80
2022-12-29T05:49:12.970Z,0.90
2022-12-29T05:52:07.631Z,0.90
2022-12-29T05:54:40.747Z,0.70
2022-12-29T05:57:15.412Z,0.90
2022-12-29T05:59:48.201Z,0.70
2022-12-29T06:02:18.494Z,0.70
2022-12-29T06:04:49.417Z,0.77
2022-12-29T06:07:19.295Z,0.70
2022-12-29T06:09:59.225Z,0.80
2022-12-29T06:12:31.177Z,0.70
2022-12-29T06:15:00.952Z,0.70
2022-12-29T06:17:30.805Z,0.87
2022-12-29T06:20:00.581Z,0.70
2022-12-29T06:22:33.617Z,0.60
2022-12-29T06:25:08.636Z,0.77
2022-12-29T06:27:40.975Z,0.70
2022-12-29T06:30:12.623Z,0.70
2022-12-29T06:32:43.706Z,0.60
2022-12-29T06:35:23.336Z,0.60
2022-12-29T06:37:55.092Z,0.97
2022-12-29T06:40:27.452Z,1.20
2022-12-29T06:43:33.292Z,0.90
2022-12-29T06:46:22.238Z,1.10
2022-12-29T06:48:53.095Z,0.97
2022-12-29T06:51:22.891Z,0.77
2022-12-29T06:53:52.680Z,0.83
2022-12-29T06:56:24.998Z,0.80
2022-12-29T06:58:54.697Z,1.07
2022-12-29T07:01:24.639Z,0.63
2022-12-29T07:03:55.479Z,0.77
2022-12-29T07:06:25.295Z,0.90
2022-12-29T07:08:56.246Z,0.60
2022-12-29T07:11:29.711Z,0.70
2022-12-29T07:14:02.605Z,0.50
2022-12-29T07:16:33.025Z,0.63
2022-12-29T07:19:02.834Z,0.70
2022-12-29T07:21:32.662Z,0.60
2022-12-29T07:24:03.432Z,1.10
2022-12-29T07:26:37.316Z,0.70
2022-12-29T07:29:07.319Z,0.80
2022-12-29T07:31:38.084Z,0.83
2022-12-29T07:34:07.871Z,0.70
2022-12-29T07:36:37.858Z,0.80
2022-12-29T07:39:08.236Z,0.90
2022-12-29T07:41:41.174Z,1.07
2022-12-29T07:44:16.629Z,0.90
2022-12-29T07:46:59.019Z,1.10
2022-12-29T07:49:30.737Z,1.00
2022-12-29T07:52:00.999Z,1.40
2022-12-29T07:54:31.061Z,0.93
2022-12-29T07:57:04.862Z,1.00
2022-12-29T07:59:35.082Z,1.10
2022-12-29T08:02:05.989Z,0.90
2022-12-29T08:04:35.856Z,0.90
2022-12-29T08:07:05.610Z,1.10
2022-12-29T08:09:35.612Z,0.80
2022-12-29T08:12:09.527Z,1.00
2022-12-29T08:14:39.265Z,1.20
2022-12-29T08:17:09.098Z,0.90
2022-12-29T08:19:38.924Z,0.97
2022-12-29T08:22:09.636Z,1.33
2022-12-29T08:24:39.420Z,1.27
2022-12-29T08:27:19.943Z,1.50
2022-12-29T08:29:51.855Z,1.50
2022-12-29T08:32:22.312Z,1.50
2022-12-29T08:34:52.027Z,1.43
2022-12-29T08:37:26.272Z,1.50
2022-12-29T08:40:04.567Z,1.63
2022-12-29T08:42:37.991Z,1.20
2022-12-29T08:45:09.682Z,2.43
2022-12-29T08:47:39.595Z,1.83
2022-12-29T08:50:11.097Z,1.70
2022-12-29T08:52:41.875Z,1.47
2022-12-29T08:55:12.652Z,1.80
2022-12-29T08:57:46.314Z,1.27
2022-12-29T09:00:22.583Z,1.40
2022-12-29T09:02:52.429Z,1.47
2022-12-29T09:05:23.549Z,1.20
2022-12-29T09:07:54.322Z,1.13
2022-12-29T09:10:24.617Z,1.50
2022-12-29T09:12:57.102Z,1.47
2022-12-29T09:15:26.799Z,1.03
2022-12-29T09:17:56.631Z,1.53
2022-12-29T09:20:27.418Z,1.53
2022-12-29T09:22:58.196Z,1.50
2022-12-29T09:25:28.919Z,1.40
2022-12-29T09:28:03.999Z,1.47
2022-12-29T09:30:34.682Z,1.30
2022-12-29T09:33:04.497Z,1.33
2022-12-29T09:35:35.237Z,1.60
2022-12-29T09:38:04.941Z,2.27
2022-12-29T09:40:37.043Z,2.20
2022-12-29T09:43:34.865Z,1.83
2022-12-29T09:46:15.698Z,1.90
2022-12-29T09:48:51.525Z,1.53
2022-12-29T09:51:27.347Z,1.93
2022-12-29T09:54:02.406Z,1.20
2022-12-29T09:56:32.244Z,1.70
2022-12-29T09:59:14.334Z,1.30
2022-12-29T10:01:51.598Z,2.80
2022-12-29T10:04:21.560Z,1.03
2022-12-29T10:09:57.297Z,1.93
2022-12-29T10:12:36.180Z,1.40
2022-12-29T10:15:17.723Z,1.50
2022-12-29T10:17:58.403Z,1.20
2022-12-29T10:20:34.291Z,1.50
2022-12-29T10:23:28.735Z,1.83
2022-12-29T10:26:01.158Z,1.30
2022-12-29T10:28:41.414Z,1.23
2022-12-29T10:31:21.082Z,1.40
2022-12-29T10:33:55.878Z,1.57
2022-12-29T10:36:34.036Z,1.30
2022-12-29T10:39:17.136Z,1.97
2022-12-29T10:41:53.483Z,3.73
2022-12-29T10:44:24.422Z,1.33
2022-12-29T10:47:03.377Z,1.40
2022-12-29T10:49:36.325Z,1.40
2022-12-29T10:52:07.751Z,1.40
2022-12-29T10:54:43.405Z,1.27
2022-12-29T10:57:21.198Z,1.30
2022-12-29T10:59:50.903Z,2.00
2022-12-29T11:02:53.877Z,1.73
2022-12-29T11:05:32.625Z,2.93
2022-12-29T11:08:06.212Z,1.80
2022-12-29T11:10:42.242Z,1.87
2022-12-29T11:13:17.776Z,1.33
2022-12-29T11:15:49.986Z,1.70
2022-12-29T11:18:28.068Z,3.03
2022-12-29T11:21:01.248Z,1.57
2022-12-29T11:23:36.976Z,1.90
2022-12-29T11:26:16.591Z,1.20
2022-12-29T11:28:49.221Z,1.67
2022-12-29T11:31:25.593Z,2.00
2022-12-29T11:33:57.906Z,2.33
2022-12-29T11:36:28.967Z,1.83
2022-12-29T11:38:59.621Z,1.70
2022-12-29T11:41:32.255Z,2.20
2022-12-29T11:44:05.167Z,2.57
2022-12-29T11:46:38.638Z,1.57
2022-12-29T11:49:17.490Z,1.90
2022-12-29T11:51:50.578Z,1.80
2022-12-29T11:54:25.872Z,2.00
2022-12-29T11:56:58.323Z,1.40
2022-12-29T11:59:42.054Z,2.10
2022-12-29T12:02:43.111Z,1.50
2022-12-29T12:05:25.020Z,1.53
2022-12-29T12:08:00.751Z,2.03
2022-12-29T12:10:38.622Z,2.30
2022-12-29T12:13:18.260Z,1.57
2022-12-29T12:15:57.164Z,1.87
2022-12-29T12:18:38.269Z,1.60
2022-12-29T12:21:18.438Z,2.00
2022-12-29T12:24:09.177Z,1.60
2022-12-29T12:26:43.040Z,2.00
2022-12-29T12:29:17.235Z,1.60
2022-12-29T12:31:53.556Z,1.43
2022-12-29T12:34:31.798Z,1.73
2022-12-29T12:37:30.739Z,1.70
2022-12-29T12:40:23.004Z,1.60
2022-12-29T12:43:04.116Z,1.97
2022-12-29T12:45:49.636Z,1.80
2022-12-29T12:48:32.821Z,1.53
2022-12-29T12:51:13.895Z,2.50
2022-12-29T12:54:00.883Z,2.07
2022-12-29T12:56:46.185Z,1.80
2022-12-29T12:59:30.921Z,2.10
2022-12-29T13:02:14.276Z,2.20
2022-12-29T13:05:00.239Z,2.00
2022-12-29T13:07:44.382Z,1.27
2022-12-29T13:10:36.235Z,4.83
2022-12-29T13:13:25.637Z,1.13
2022-12-29T13:16:01.912Z,3.47
2022-12-29T13:18:41.558Z,1.73
2022-12-29T13:21:23.350Z,1.70
2022-12-29T13:24:05.024Z,1.80
2022-12-29T13:26:43.343Z,1.70
2022-12-29T13:29:20.834Z,2.03
2022-12-29T13:32:00.171Z,1.93
2022-12-29T13:34:43.410Z,1.40
2022-12-29T13:37:18.566Z,1.93
2022-12-29T13:39:54.056Z,2.40
2022-12-29T13:42:29.419Z,2.10
2022-12-29T13:45:05.556Z,2.80
2022-12-29T13:47:40.706Z,2.60
2022-12-29T13:50:19.031Z,2.20
2022-12-29T13:52:57.945Z,1.70
2022-12-29T13:55:35.424Z,1.97
2022-12-29T13:58:23.251Z,1.40
2022-12-29T14:01:00.260Z,2.10
2022-12-29T14:03:52.989Z,1.60
2022-12-29T14:06:27.877Z,3.10
2022-12-29T14:09:01.105Z,1.63
2022-12-29T14:11:36.210Z,2.27
2022-12-29T14:14:22.806Z,1.70
2022-12-29T14:16:54.600Z,1.63
2022-12-29T14:19:30.943Z,1.70
2022-12-29T14:22:04.430Z,2.10
2022-12-29T14:24:48.934Z,1.50
2022-12-29T14:27:47.872Z,2.13
2022-12-29T14:30:52.993Z,1.60
2022-12-29T14:33:27.511Z,1.77
2022-12-29T14:36:00.074Z,2.10
2022-12-29T14:38:32.617Z,1.70
2022-12-29T14:41:30.148Z,1.80
2022-12-29T14:44:20.023Z,2.07
2022-12-29T14:47:01.175Z,1.30
2022-12-29T14:49:34.832Z,1.80
2022-12-29T14:52:18.753Z,2.67
2022-12-29T14:54:56.051Z,1.90
2022-12-29T14:57:38.356Z,2.17
2022-12-29T15:00:20.172Z,1.80
2022-12-29T15:03:03.831Z,1.50
2022-12-29T15:05:38.629Z,2.07
2022-12-29T15:08:10.987Z,1.70
2022-12-29T15:10:48.967Z,1.80
2022-12-29T15:13:20.970Z,2.47
2022-12-29T15:15:52.058Z,1.83
2022-12-29T15:18:31.033Z,2.10
2022-12-29T15:21:03.349Z,2.33
2022-12-29T15:23:36.432Z,1.60
2022-12-29T15:26:08.144Z,1.80
2022-12-29T15:28:42.797Z,2.40
2022-12-29T15:31:16.793Z,1.97
2022-12-29T15:33:52.208Z,1.80
2022-12-29T15:36:24.720Z,3.20
2022-12-29T15:38:55.461Z,1.90
2022-12-29T15:41:56.501Z,2.27
2022-12-29T15:44:32.361Z,3.23
2022-12-29T15:47:06.370Z,2.10
2022-12-29T15:49:39.802Z,2.27
2022-12-29T15:52:11.452Z,2.73
2022-12-29T15:54:42.178Z,2.50
2022-12-29T15:57:26.138Z,2.80
2022-12-29T15:59:57.596Z,2.80
2022-12-29T16:02:29.093Z,2.13
2022-12-29T16:05:17.618Z,2.67
2022-12-29T16:07:56.739Z,2.30
2022-12-29T16:10:34.639Z,2.73
2022-12-29T16:13:17.405Z,2.93
2022-12-29T16:15:49.888Z,2.20
2022-12-29T16:18:29.345Z,2.60
2022-12-29T16:21:02.878Z,4.23
2022-12-29T16:23:34.203Z,4.17
2022-12-29T16:26:08.876Z,2.63
2022-12-29T16:28:43.743Z,2.77
2022-12-29T16:31:22.837Z,2.10
2022-12-29T16:33:54.247Z,2.00
2022-12-29T16:36:37.740Z,3.33
2022-12-29T16:39:25.321Z,2.40
2022-12-29T16:41:56.951Z,2.40
2022-12-29T16:44:28.491Z,1.70
2022-12-29T16:47:08.879Z,2.37
2022-12-29T16:49:40.421Z,2.33
2022-12-29T16:52:22.541Z,2.23
2022-12-29T16:54:56.750Z,2.00
2022-12-29T16:57:29.412Z,2.10
2022-12-29T17:00:03.003Z,2.30
2022-12-29T17:02:36.105Z,2.00
2022-12-29T17:05:07.536Z,2.57
2022-12-29T17:07:41.193Z,2.13
2022-12-29T17:10:13.464Z,2.30
2022-12-29T17:12:45.799Z,3.70
2022-12-29T17:15:19.089Z,2.17
2022-12-29T17:17:51.870Z,3.00
2022-12-29T17:20:25.183Z,2.10
2022-12-29T17:22:58.150Z,2.40
2022-12-29T17:25:33.134Z,2.37
2022-12-29T17:28:06.728Z,2.00
2022-12-29T17:30:37.913Z,2.37
2022-12-29T17:33:11.122Z,2.13
2022-12-29T17:35:42.148Z,2.40
2022-12-29T17:38:21.963Z,1.80
2022-12-29T17:40:53.452Z,2.00
2022-12-29T17:43:23.420Z,2.10
2022-12-29T17:45:57.478Z,1.50
2022-12-29T17:48:27.913Z,1.70
2022-12-29T17:51:00.809Z,1.10
2022-12-29T17:53:33.796Z,1.57
2022-12-29T17:56:03.645Z,2.00
2022-12-29T17:58:35.603Z,1.30
2022-12-29T18:01:08.191Z,1.30
2022-12-29T18:03:41.685Z,1.40
2022-12-29T18:06:14.500Z,1.37
2022-12-29T18:08:47.503Z,1.80
2022-12-29T18:11:25.944Z,1.20
2022-12-29T18:13:56.543Z,1.43
2022-12-29T18:16:26.401Z,1.73
2022-12-29T18:18:56.347Z,1.43
2022-12-29T18:21:27.746Z,1.40
2022-12-29T18:24:00.184Z,1.47
2022-12-29T18:26:35.897Z,2.00
2022-12-29T18:29:07.771Z,1.53
2022-12-29T18:31:37.891Z,1.60
2022-12-29T18:34:19.370Z,1.93
2022-12-29T18:36:50.548Z,2.13
2022-12-29T18:39:29.777Z,1.77
2022-12-29T18:42:01.001Z,1.83
2022-12-29T18:44:31.723Z,2.20
2022-12-29T18:47:04.653Z,2.57
2022-12-29T18:49:36.825Z,2.57
2022-12-29T18:52:09.186Z,1.93
2022-12-29T18:54:43.830Z,4.00
2022-12-29T18:57:14.500Z,2.00
2022-12-29T18:59:46.234Z,1.93
2022-12-29T19:02:20.588Z,2.23
2022-12-29T19:04:53.466Z,3.30
2022-12-29T19:07:29.141Z,2.63
2022-12-29T19:10:02.626Z,2.30
2022-12-29T19:12:33.505Z,2.10
2022-12-29T19:15:07.134Z,2.13
2022-12-29T19:17:38.010Z,2.20
2022-12-29T19:20:28.455Z,2.40
2022-12-29T19:23:00.266Z,2.03
2022-12-29T19:25:33.867Z,2.00
2022-12-29T19:28:07.188Z,2.07
2022-12-29T19:30:38.008Z,2.37
2022-12-29T19:33:10.060Z,1.97
2022-12-29T19:35:41.372Z,1.83
2022-12-29T19:38:15.584Z,1.97
2022-12-29T19:40:50.488Z,1.47
2022-12-29T19:43:21.762Z,1.43
2022-12-29T19:45:53.912Z,2.23
2022-12-29T19:48:24.044Z,2.90
2022-12-29T19:50:54.014Z,0.97
2022-12-29T19:53:23.906Z,1.60
2022-12-29T19:55:57.332Z,1.77
2022-12-29T19:58:28.151Z,1.53
2022-12-29T20:00:59.030Z,1.60
2022-12-29T20:03:28.808Z,1.33
2022-12-29T20:05:59.728Z,1.40
2022-12-29T20:08:30.001Z,1.50
2022-12-29T20:11:08.504Z,1.33
2022-12-29T20:13:38.870Z,1.70
2022-12-29T20:16:12.677Z,1.20
2022-12-29T20:18:44.067Z,1.90
2022-12-29T20:21:16.298Z,1.40
2022-12-29T20:23:47.815Z,1.60
2022-12-29T20:26:21.885Z,1.77
2022-12-29T20:28:53.681Z,1.73
2022-12-29T20:31:27.750Z,1.63
2022-12-29T20:33:58.749Z,1.43
2022-12-29T20:36:31.331Z,1.70
2022-12-29T20:39:04.438Z,2.30
2022-12-29T20:41:37.545Z,1.67
2022-12-29T20:44:07.841Z,1.67
2022-12-29T20:46:43.546Z,1.43
2022-12-29T20:49:14.272Z,1.83
2022-12-29T20:52:14.839Z,1.70
2022-12-29T20:54:39.439Z,1.80
2022-12-29T20:57:12.269Z,2.30
2022-12-29T20:59:43.173Z,2.60
2022-12-29T21:02:22.009Z,2.03
2022-12-29T21:07:44.769Z,1.90
2022-12-29T21:10:14.522Z,2.57
2022-12-29T21:12:48.647Z,2.40
2022-12-29T21:15:18.855Z,2.10
2022-12-29T21:17:49.791Z,2.30
2022-12-29T21:20:30.210Z,2.80
2022-12-29T21:23:02.309Z,1.97
2022-12-29T21:25:37.429Z,2.23
2022-12-29T21:28:12.289Z,2.93
2022-12-29T21:30:42.495Z,2.37
2022-12-29T21:33:13.376Z,2.60
2022-12-29T21:35:43.628Z,2.60
2022-12-29T21:38:13.759Z,3.20
2022-12-29T21:40:43.840Z,2.50
2022-12-29T21:43:16.392Z,2.77
2022-12-29T21:45:49.969Z,2.27
2022-12-29T21:48:30.175Z,2.93
2022-12-29T21:51:31.979Z,2.90
2022-12-29T21:54:24.199Z,3.43
2022-12-29T21:56:55.028Z,2.20
2022-12-29T21:59:41.965Z,3.00
2022-12-29T22:02:34.917Z,4.00
2022-12-29T22:05:17.869Z,3.23
2022-12-29T22:08:00.028Z,2.87
2022-12-29T22:10:42.239Z,3.30
2022-12-29T22:13:11.988Z,2.90
2022-12-29T22:15:45.436Z,2.47
2022-12-29T22:18:16.404Z,3.17
2022-12-29T22:20:46.168Z,2.90
2022-12-29T22:23:16.900Z,3.70
2022-12-29T22:25:48.693Z,3.37
2022-12-29T22:28:18.835Z,3.00
2022-12-29T22:30:52.325Z,3.70
2022-12-29T22:33:22.316Z,3.50
2022-12-29T22:35:53.145Z,3.00
2022-12-29T22:38:25.108Z,3.40
2022-12-29T22:41:01.321Z,3.10
2022-12-29T22:43:32.359Z,3.17
2022-12-29T22:46:08.810Z,4.23
2022-12-29T22:48:41.074Z,3.73
2022-12-29T22:51:10.858Z,4.40
2022-12-29T22:53:41.798Z,4.00
2022-12-29T22:56:15.367Z,3.50
2022-12-29T22:58:47.802Z,4.40
2022-12-29T23:01:23.363Z,3.40
2022-12-29T23:04:05.968Z,3.50
2022-12-29T23:06:44.320Z,3.63
2022-12-29T23:09:19.394Z,3.80
2022-12-29T23:11:49.575Z,4.23
2022-12-29T23:14:19.651Z,3.67
2022-12-29T23:16:53.148Z,3.30
2022-12-29T23:19:22.986Z,4.00
2022-12-29T23:21:54.402Z,4.13
2022-12-29T23:24:24.385Z,4.90
2022-12-29T23:26:56.128Z,3.97
2022-12-29T23:29:25.846Z,4.27
2022-12-29T23:31:58.176Z,3.70
2022-12-29T23:34:28.028Z,3.13
2022-12-29T23:36:57.741Z,4.40
2022-12-29T23:39:28.691Z,4.30
2022-12-29T23:41:58.429Z,3.47
2022-12-29T23:44:28.154Z,3.73
2022-12-29T23:47:00.464Z,4.13
2022-12-29T23:49:30.188Z,4.20
2022-12-29T23:51:59.864Z,3.23
2022-12-29T23:54:29.571Z,3.77
2022-12-29T23:56:59.247Z,3.80
2022-12-29T23:59:29.129Z,3.63
